This is the latest recevied weather packets stored in our database for station/object VA2EYZ-13. If no packets are shown the sender has not sent any weather packets the latest 10 day(s).
| Time | Temp. | Humidity | Pressure | Rain* | Wind** | Luminosity | Snow |
|---|---|---|---|---|---|---|---|
| 1777884862 | 8.89° C | 38% | 1005.5 hPa | - | - | - | - |
| 1777882654 | 8.89° C | 38% | 1005 hPa | - | - | - | - |
| 1777881831 | 8.89° C | 38% | 1006 hPa | - | - | - | - |
| 1777881421 | 9.44° C | 34% | 1006 hPa | - | - | - | - |
| 1777878231 | 9.44° C | 34% | 1006.2 hPa | - | - | - | - |
| 1777877909 | 8.89° C | 31% | 1006.2 hPa | - | - | - | - |
| 1777877321 | 8.89° C | 31% | 1006 hPa | - | - | - | - |
| 1777876350 | 8.89° C | 31% | 1005 hPa | - | - | - | - |
| 1777874367 | 8.89° C | 28% | 1006.3 hPa | - | - | - | - |
| 1777867404 | 8.33° C | 27% | 1006 hPa | - | - | - | - |
| 1777844668 | 11.11° C | 18% | 1006 hPa | - | - | - | - |
| 1777844182 | 11.11° C | 18% | 1007.1 hPa | - | - | - | - |
| 1777840712 | 11.11° C | 19% | 1007.3 hPa | - | - | - | - |
| 1777838213 | 11.11° C | 20% | 1007 hPa | - | - | - | - |
| 1777827040 | 10° C | 24% | 1009.5 hPa | - | - | - | - |
| 1777824671 | 10° C | 24% | 1010 hPa | - | - | - | - |
| 1777823902 | 10° C | 24% | 1010.3 hPa | - | - | - | - |
| 1777822294 | 10° C | 24% | 1010 hPa | - | - | - | - |
| 1777821341 | 9.44° C | 24% | 1010 hPa | - | - | - | - |
| 1777819702 | 9.44° C | 24% | 1010 hPa | - | - | - | - |
| 1777817425 | 9.44° C | 24% | 1011.4 hPa | - | - | - | - |
| 1777815498 | 8.33° C | 32% | 1012 hPa | - | - | - | - |
| 1777768748 | 9.44° C | 30% | 1012 hPa | - | - | - | - |
| 1777766906 | 9.44° C | 30% | 1012.2 hPa | - | - | - | - |
| 1777766474 | 9.44° C | 30% | 1012 hPa | - | - | - | - |
* Rain since midnight (hover to see other rain measurements)
** Current wind speed in m/s (hover to see current wind gust speed)